Time;durP1;ratioP1;P1;durP2;ratioP2;P2;SDS_P1;SDS_P2;PMS_P1;PMS_P2;Temp;Humidity;BMP_temperature;BMP_pressure;BME280_temperature;BME280_humidity;BME280_pressure;Samples;Min_cycle;Max_cycle;Signal;HPM_P1;HPM_P2
2022/10/14 00:02:16;;;;;;;20.30;14.10;;;;;;;12.69;92.71;100818.64;103135;1300;61056;-79
2022/10/14 00:04:43;;;;;;;19.90;14.10;;;;;;;12.70;92.56;100820.01;103543;1304;60551;-77
2022/10/14 00:07:09;;;;;;;20.00;14.30;;;;;;;12.71;92.86;100819.68;104090;1291;59553;-78
2022/10/14 00:09:36;;;;;;;20.90;14.50;;;;;;;12.71;92.81;100818.74;103299;1296;60622;-77
2022/10/14 00:12:02;;;;;;;20.60;15.10;;;;;;;12.71;92.94;100816.45;103215;1293;60479;-78
2022/10/14 00:14:29;;;;;;;22.60;15.00;;;;;;;12.72;92.85;100816.94;104542;1296;59864;-80
2022/10/14 00:16:55;;;;;;;20.80;14.80;;;;;;;12.71;92.93;100815.75;104707;1293;60974;-78
2022/10/14 00:19:22;;;;;;;21.50;15.00;;;;;;;12.70;92.91;100814.05;103381;1296;60406;-77
2022/10/14 00:21:48;;;;;;;23.10;15.60;;;;;;;12.69;93.22;100811.23;103375;1300;60576;-78
2022/10/14 00:24:16;;;;;;;20.90;15.10;;;;;;;12.68;93.18;100809.20;103583;1295;60538;-78
2022/10/14 00:26:42;;;;;;;22.50;15.50;;;;;;;12.67;93.41;100812.92;103493;1296;70093;-78
2022/10/14 00:29:17;;;;;;;24.10;16.40;;;;;;;12.66;93.37;100811.23;103254;1304;60532;-78
2022/10/14 00:31:44;;;;;;;23.60;16.70;;;;;;;12.65;93.73;100811.67;103541;1302;62605;-78
2022/10/14 00:34:14;;;;;;;22.70;15.40;;;;;;;12.65;93.75;100809.39;104239;1299;59437;-78
2022/10/14 00:36:42;;;;;;;23.70;16.70;;;;;;;12.66;93.81;100805.37;103895;1301;72412;-78
2022/10/14 00:39:09;;;;;;;22.00;16.20;;;;;;;12.67;93.70;100804.33;103411;1296;70452;-78
2022/10/14 00:41:36;;;;;;;28.00;17.30;;;;;;;12.69;93.83;100802.55;103053;1305;72623;-78
2022/10/14 00:44:26;;;;;;;24.30;16.60;;;;;;;12.70;93.70;100805.59;103648;1304;59441;-79
2022/10/14 00:46:54;;;;;;;22.70;16.30;;;;;;;12.70;93.67;100806.08;103708;1302;61888;-78
2022/10/14 00:49:26;;;;;;;25.70;17.20;;;;;;;12.71;93.70;100808.83;103392;1297;72555;-78
2022/10/14 00:51:56;;;;;;;23.80;16.80;;;;;;;12.70;93.75;100805.42;104188;1295;69775;-79
2022/10/14 00:54:28;;;;;;;21.70;16.70;;;;;;;12.69;93.75;100802.51;104163;1297;73433;-79
2022/10/14 00:56:55;;;;;;;22.90;16.40;;;;;;;12.70;94.04;100803.70;103385;1300;62039;-79
2022/10/14 00:59:21;;;;;;;24.70;16.80;;;;;;;12.70;94.10;100802.44;103529;1298;59287;-78
2022/10/14 01:01:48;;;;;;;23.50;17.40;;;;;;;12.70;94.10;100800.14;103481;1294;73647;-77
2022/10/14 01:04:14;;;;;;;25.40;17.90;;;;;;;12.71;93.96;100800.32;104089;1296;60421;-78
2022/10/14 01:06:59;;;;;;;26.20;18.30;;;;;;;12.72;93.89;100801.96;103662;1297;60480;-79
2022/10/14 01:09:40;;;;;;;27.70;17.50;;;;;;;12.72;93.95;100796.52;103858;1298;61595;-79
2022/10/14 01:12:06;;;;;;;25.40;18.10;;;;;;;12.71;94.18;100791.23;104696;1289;59305;-80
2022/10/14 01:15:03;;;;;;;26.20;18.40;;;;;;;12.72;94.03;100794.89;104191;1289;75101;-79
2022/10/14 01:17:56;;;;;;;26.40;17.70;;;;;;;12.72;94.10;100792.91;103574;1302;71214;-79
2022/10/14 01:20:41;;;;;;;25.80;18.40;;;;;;;12.72;94.10;100794.22;103549;1302;71430;-77
2022/10/14 01:23:32;;;;;;;26.80;18.40;;;;;;;12.70;94.21;100791.92;103845;1303;62282;-78
2022/10/14 01:26:37;;;;;;;25.70;18.70;;;;;;;12.69;94.36;100792.55;103645;1296;60611;-78
2022/10/14 01:29:25;;;;;;;28.90;19.50;;;;;;;12.69;94.61;100791.04;104220;1299;73597;-79
2022/10/14 01:32:23;;;;;;;28.90;19.00;;;;;;;12.68;94.66;100787.39;103981;1296;69912;-79
2022/10/14 01:35:37;;;;;;;26.70;18.80;;;;;;;12.68;94.96;100788.57;103730;1298;73098;-78
2022/10/14 01:38:18;;;;;;;28.60;19.30;;;;;;;12.68;95.15;100785.46;102859;1299;60712;-77
2022/10/14 01:41:33;;;;;;;28.70;20.40;;;;;;;12.66;95.13;100783.52;103644;1297;60153;-79
2022/10/14 01:44:08;;;;;;;29.80;20.10;;;;;;;12.63;95.89;100782.59;102864;1306;72468;-78
2022/10/14 01:46:39;;;;;;;27.60;19.60;;;;;;;12.61;96.19;100773.50;103240;1303;70270;-78
2022/10/14 01:49:12;;;;;;;27.90;19.70;;;;;;;12.60;96.12;100773.25;104247;1295;71412;-78
2022/10/14 01:51:49;;;;;;;28.40;19.40;;;;;;;12.59;96.70;100772.66;103880;1292;60491;-78
2022/10/14 01:54:22;;;;;;;29.90;20.80;;;;;;;12.59;96.77;100772.02;103700;1298;60604;-78
2022/10/14 01:56:51;;;;;;;27.60;19.60;;;;;;;12.60;96.78;100770.27;103274;1296;73613;-78
2022/10/14 01:59:20;;;;;;;30.80;20.10;;;;;;;12.59;96.92;100763.74;103687;1296;71106;-78
2022/10/14 02:01:47;;;;;;;29.30;20.30;;;;;;;12.60;96.87;100763.50;103883;1299;72951;-77
2022/10/14 02:04:16;;;;;;;28.10;19.30;;;;;;;12.61;97.00;100763.89;103742;1297;62397;-78
2022/10/14 02:07:14;;;;;;;28.40;20.40;;;;;;;12.62;97.13;100762.05;104168;1302;60491;-78
2022/10/14 02:09:53;;;;;;;28.80;20.10;;;;;;;12.63;97.18;100762.80;104267;1300;74173;-78
2022/10/14 02:12:24;;;;;;;26.70;19.10;;;;;;;12.64;97.13;100765.31;103962;1295;70007;-78
2022/10/14 02:15:06;;;;;;;28.60;20.40;;;;;;;12.64;97.01;100765.94;103410;1289;72474;-78
2022/10/14 02:18:02;;;;;;;27.60;19.50;;;;;;;12.65;97.34;100765.20;103617;1295;60748;-76
2022/10/14 02:20:50;;;;;;;29.20;20.20;;;;;;;12.64;97.58;100770.40;104022;1295;60455;-78
2022/10/14 02:23:25;;;;;;;29.60;20.40;;;;;;;12.64;97.51;100764.88;104254;1295;73039;-78
2022/10/14 02:25:53;;;;;;;26.70;19.50;;;;;;;12.65;97.51;100760.16;103798;1287;72162;-78
2022/10/14 02:28:26;;;;;;;30.60;19.80;;;;;;;12.68;97.51;100757.27;104334;1295;73647;-78
2022/10/14 02:30:57;;;;;;;28.10;19.70;;;;;;;12.70;97.40;100760.01;104029;1284;60540;-78
2022/10/14 02:33:32;;;;;;;26.30;19.00;;;;;;;12.70;97.31;100756.94;103517;1297;59551;-79
2022/10/14 02:36:01;;;;;;;27.80;18.60;;;;;;;12.72;97.41;100758.02;103017;1303;72079;-78
2022/10/14 02:38:30;;;;;;;27.20;19.00;;;;;;;12.73;97.34;100758.37;104162;1297;71040;-79
2022/10/14 02:41:01;;;;;;;27.10;19.10;;;;;;;12.74;97.24;100756.46;104237;1297;72474;-79
2022/10/14 02:43:28;;;;;;;24.30;17.70;;;;;;;12.78;97.25;100759.30;103903;1306;61139;-78
2022/10/14 02:45:58;;;;;;;27.30;18.80;;;;;;;12.80;97.06;100757.31;103398;1301;60921;-77
2022/10/14 02:48:24;;;;;;;25.60;17.50;;;;;;;12.81;96.92;100754.33;104669;1287;72366;-77
2022/10/14 02:50:51;;;;;;;25.80;18.20;;;;;;;12.82;96.99;100747.16;103514;1297;69868;-78
2022/10/14 02:53:18;;;;;;;24.00;17.50;;;;;;;12.84;96.67;100746.17;103742;1296;61285;-78
2022/10/14 02:55:44;;;;;;;26.50;17.90;;;;;;;12.87;96.82;100742.14;103696;1295;62970;-77
2022/10/14 02:58:11;;;;;;;25.60;17.80;;;;;;;12.88;96.78;100744.25;104398;1295;59898;-78
2022/10/14 03:00:37;;;;;;;26.10;17.10;;;;;;;12.90;96.66;100743.13;104186;1296;59852;-78
2022/10/14 03:03:03;;;;;;;25.60;18.20;;;;;;;12.92;96.52;100738.30;103427;1301;60515;-78
2022/10/14 03:05:30;;;;;;;25.00;17.60;;;;;;;12.94;96.53;100738.59;104164;1280;61525;-78
2022/10/14 03:07:56;;;;;;;26.90;17.30;;;;;;;12.95;96.78;100736.91;104120;1294;60357;-77
2022/10/14 03:10:23;;;;;;;24.80;16.80;;;;;;;12.94;96.58;100735.02;103899;1300;60958;-79
2022/10/14 03:12:50;;;;;;;24.70;17.60;;;;;;;12.96;96.56;100735.19;103373;1296;60650;-79
2022/10/14 03:15:16;;;;;;;26.70;16.80;;;;;;;12.95;96.62;100730.60;104124;1302;58736;-77
2022/10/14 03:17:43;;;;;;;26.90;18.20;;;;;;;12.97;96.44;100737.16;104321;1296;59350;-77
2022/10/14 03:20:10;;;;;;;25.30;17.10;;;;;;;12.97;96.38;100735.85;103333;1300;60493;-77
2022/10/14 03:22:36;;;;;;;25.00;17.40;;;;;;;12.97;96.55;100738.89;103157;1297;60599;-78
2022/10/14 03:25:03;;;;;;;22.90;17.30;;;;;;;12.96;96.57;100738.85;103616;1288;60407;-78
2022/10/14 03:27:29;;;;;;;26.20;18.00;;;;;;;12.96;96.62;100741.67;104073;1302;70875;-79
2022/10/14 03:29:56;;;;;;;24.60;17.70;;;;;;;12.94;96.99;100737.52;103689;1302;59290;-77
2022/10/14 03:32:22;;;;;;;24.90;17.80;;;;;;;12.93;97.33;100739.09;103850;1300;60466;-77
2022/10/14 03:34:49;;;;;;;26.30;18.10;;;;;;;12.92;97.68;100738.88;103597;1305;60545;-77
2022/10/14 03:37:16;;;;;;;26.70;18.30;;;;;;;12.91;97.66;100736.65;104226;1296;59298;-77
2022/10/14 03:39:43;;;;;;;27.40;18.40;;;;;;;12.90;97.82;100733.20;103367;1301;60532;-77
2022/10/14 03:42:10;;;;;;;25.60;18.60;;;;;;;12.92;97.95;100731.39;103259;1297;73003;-77
2022/10/14 03:44:36;;;;;;;26.50;18.70;;;;;;;12.92;97.84;100727.59;104240;1293;62863;-78
2022/10/14 03:47:03;;;;;;;24.70;17.90;;;;;;;12.93;97.74;100726.60;103355;1295;60440;-77
2022/10/14 03:49:30;;;;;;;26.10;17.80;;;;;;;12.93;97.79;100725.77;103559;1295;73666;-77
2022/10/14 03:51:56;;;;;;;26.30;19.00;;;;;;;12.93;97.77;100724.91;103481;1305;60681;-77
2022/10/14 03:54:22;;;;;;;26.30;18.50;;;;;;;12.92;97.58;100724.42;103874;1297;59337;-77
2022/10/14 03:56:49;;;;;;;27.40;18.80;;;;;;;12.92;97.66;100726.05;103965;1296;63550;-78
2022/10/14 03:59:16;;;;;;;26.00;18.90;;;;;;;12.92;97.54;100725.35;103436;1303;60546;-78
2022/10/14 04:01:42;;;;;;;30.50;19.80;;;;;;;12.91;97.67;100724.89;103475;1302;60418;-77
2022/10/14 04:04:09;;;;;;;23.10;17.90;;;;;;;12.92;97.85;100727.70;103952;1302;58951;-77
2022/10/14 04:06:36;;;;;;;28.70;20.10;;;;;;;12.90;97.99;100724.72;103212;1296;60609;-77
2022/10/14 04:09:03;;;;;;;28.00;18.90;;;;;;;12.89;98.03;100724.86;103936;1301;60462;-77
2022/10/14 04:11:30;;;;;;;25.30;18.80;;;;;;;12.89;97.76;100717.78;103406;1296;60604;-77
2022/10/14 04:13:58;;;;;;;26.80;18.80;;;;;;;12.89;97.81;100713.48;104603;1297;60526;-77
2022/10/14 04:16:25;;;;;;;28.00;18.70;;;;;;;12.90;97.77;100705.52;103990;1289;70269;-77
2022/10/14 04:18:53;;;;;;;28.50;18.80;;;;;;;12.89;97.97;100709.39;103375;1300;72330;-77
2022/10/14 04:21:19;;;;;;;27.40;19.20;;;;;;;12.89;97.84;100720.98;103676;1293;60445;-78
2022/10/14 04:23:46;;;;;;;27.40;19.10;;;;;;;12.88;98.28;100720.39;103508;1305;60629;-77
2022/10/14 04:26:12;;;;;;;26.60;19.20;;;;;;;12.87;98.48;100719.66;103819;1303;73734;-78
2022/10/14 04:28:39;;;;;;;28.90;19.80;;;;;;;12.87;98.32;100711.66;103337;1297;69837;-77
2022/10/14 04:31:05;;;;;;;27.60;19.60;;;;;;;12.86;98.36;100713.50;103805;1295;71875;-78
2022/10/14 04:33:33;;;;;;;28.70;20.40;;;;;;;12.86;98.22;100714.23;103797;1296;59789;-77
2022/10/14 04:36:03;;;;;;;29.10;20.40;;;;;;;12.87;98.34;100720.80;103968;1299;60424;-77
2022/10/14 04:38:31;;;;;;;26.80;19.70;;;;;;;12.88;98.30;100725.09;103411;1300;72411;-77
2022/10/14 04:40:57;;;;;;;27.40;19.50;;;;;;;12.89;98.38;100724.34;103458;1303;70509;-77
2022/10/14 04:43:24;;;;;;;28.90;20.20;;;;;;;12.87;98.57;100720.77;103680;1297;72478;-77
2022/10/14 04:45:51;;;;;;;28.90;20.30;;;;;;;12.85;98.55;100722.23;103535;1303;61770;-78
2022/10/14 04:48:17;;;;;;;29.80;20.00;;;;;;;12.85;98.53;100721.02;103732;1302;59423;-76
2022/10/14 04:50:43;;;;;;;28.70;20.20;;;;;;;12.87;98.63;100721.05;103757;1295;59909;-78
2022/10/14 04:53:10;;;;;;;26.60;19.40;;;;;;;12.89;98.68;100720.95;103900;1295;61511;-77
2022/10/14 04:55:39;;;;;;;28.20;19.40;;;;;;;12.92;98.54;100724.05;103529;1306;72306;-77
2022/10/14 04:58:06;;;;;;;28.20;20.00;;;;;;;12.95;98.53;100723.48;103395;1297;61452;-77
2022/10/14 05:00:32;;;;;;;27.60;19.50;;;;;;;12.97;98.34;100713.36;103905;1301;61347;-78
2022/10/14 05:02:58;;;;;;;26.00;18.80;;;;;;;12.97;98.07;100710.21;104217;1304;61420;-79
2022/10/14 05:05:27;;;;;;;26.80;19.80;;;;;;;12.97;98.03;100704.67;104089;1293;61170;-76
2022/10/14 05:07:53;;;;;;;27.00;19.10;;;;;;;12.96;97.62;100703.93;103073;1304;71200;-77
2022/10/14 05:10:20;;;;;;;27.30;19.90;;;;;;;12.93;97.58;100702.17;104010;1307;60624;-78
2022/10/14 05:12:48;;;;;;;24.80;18.50;;;;;;;12.90;97.38;100698.83;103598;1304;61402;-77
2022/10/14 05:15:15;;;;;;;29.20;19.40;;;;;;;12.85;97.29;100692.40;103749;1303;74089;-78
2022/10/14 05:17:43;;;;;;;29.20;20.00;;;;;;;12.81;97.06;100698.42;103088;1295;69592;-78
2022/10/14 05:20:12;;;;;;;28.90;20.00;;;;;;;12.76;97.08;100693.77;104499;1297;72477;-78
2022/10/14 05:22:38;;;;;;;26.00;19.10;;;;;;;12.71;97.09;100691.02;104053;1289;61206;-79
2022/10/14 05:25:05;;;;;;;29.00;19.60;;;;;;;12.66;97.06;100686.27;104292;1299;61296;-79
2022/10/14 05:27:32;;;;;;;29.20;20.10;;;;;;;12.59;96.84;100687.46;103962;1303;76321;-79
2022/10/14 05:29:58;;;;;;;30.30;19.80;;;;;;;12.54;96.68;100686.10;104268;1293;69628;-79
2022/10/14 05:32:25;;;;;;;28.20;20.00;;;;;;;12.49;96.79;100684.20;104032;1292;61202;-78
2022/10/14 05:34:52;;;;;;;29.70;19.70;;;;;;;12.40;96.52;100686.14;103825;1300;61172;-79
2022/10/14 05:37:18;;;;;;;32.70;22.50;;;;;;;12.29;96.86;100690.60;104393;1301;59324;-79
2022/10/14 05:39:45;;;;;;;35.10;22.80;;;;;;;12.24;97.62;100695.66;105346;1287;58934;-79
2022/10/14 05:42:11;;;;;;;36.90;23.50;;;;;;;12.20;99.49;100703.20;105201;1299;71383;-79
2022/10/14 05:44:38;;;;;;;36.70;23.40;;;;;;;12.19;99.92;100707.91;105181;1301;59131;-74
2022/10/14 05:47:04;;;;;;;35.20;23.40;;;;;;;12.20;100.00;100707.76;105169;1296;59410;-75
2022/10/14 05:49:31;;;;;;;36.00;22.90;;;;;;;12.25;100.00;100709.34;104781;1301;59424;-73
2022/10/14 05:51:57;;;;;;;34.40;22.80;;;;;;;12.30;100.00;100710.29;104336;1302;61426;-72
2022/10/14 05:54:24;;;;;;;32.90;22.20;;;;;;;12.33;100.00;100708.54;103534;1293;59408;-74
2022/10/14 05:56:50;;;;;;;33.10;21.20;;;;;;;12.38;100.00;100709.61;103760;1299;59611;-73
2022/10/14 05:59:16;;;;;;;31.80;21.00;;;;;;;12.42;100.00;100706.27;104476;1305;61398;-72
2022/10/14 06:01:43;;;;;;;30.30;20.60;;;;;;;12.48;100.00;100702.02;103921;1295;61924;-75
2022/10/14 06:04:17;;;;;;;29.90;20.60;;;;;;;12.52;99.77;100695.09;105205;1295;59169;-74
2022/10/14 06:06:43;;;;;;;30.70;21.30;;;;;;;12.54;99.25;100691.10;105248;1290;69592;-74
2022/10/14 06:09:11;;;;;;;29.50;20.30;;;;;;;12.56;99.28;100692.50;105283;1298;72524;-74
2022/10/14 06:11:38;;;;;;;31.90;20.80;;;;;;;12.58;98.81;100698.06;105088;1294;61367;-74
2022/10/14 06:14:04;;;;;;;28.50;20.40;;;;;;;12.62;98.78;100701.02;104275;1298;59486;-74
2022/10/14 06:16:31;;;;;;;29.10;20.50;;;;;;;12.65;98.93;100702.77;103689;1299;62852;-74
2022/10/14 06:18:57;;;;;;;31.20;21.30;;;;;;;12.67;98.72;100697.34;103309;1296;61340;-73
2022/10/14 06:21:25;;;;;;;32.10;21.50;;;;;;;12.72;98.57;100700.09;103258;1299;61262;-74
2022/10/14 06:23:51;;;;;;;32.40;21.50;;;;;;;12.77;98.51;100701.12;103561;1291;61816;-73
2022/10/14 06:26:18;;;;;;;31.50;20.50;;;;;;;12.81;98.33;100698.95;103552;1297;62303;-74
2022/10/14 06:28:45;;;;;;;30.00;20.70;;;;;;;12.83;97.94;100695.03;102808;1309;73469;-74
2022/10/14 06:31:11;;;;;;;32.10;21.40;;;;;;;12.85;97.89;100695.42;102512;1296;71296;-73
2022/10/14 06:33:39;;;;;;;31.30;20.80;;;;;;;12.85;97.61;100698.83;103014;1303;61320;-74
2022/10/14 06:36:06;;;;;;;37.20;24.50;;;;;;;12.84;97.57;100697.67;103282;1302;61675;-73
2022/10/14 06:38:32;;;;;;;28.10;19.60;;;;;;;12.82;97.54;100694.33;103452;1305;59294;-74
2022/10/14 06:40:58;;;;;;;32.10;21.40;;;;;;;12.80;97.45;100696.31;103284;1302;61437;-74
2022/10/14 06:43:25;;;;;;;29.80;19.30;;;;;;;12.81;97.64;100692.44;103595;1296;63034;-73
2022/10/14 06:45:56;;;;;;;29.10;19.20;;;;;;;12.84;97.66;100688.21;102996;1299;72981;-74
2022/10/14 06:48:24;;;;;;;33.00;21.10;;;;;;;12.88;97.70;100689.27;103078;1295;61334;-73
2022/10/14 06:50:51;;;;;;;27.70;19.00;;;;;;;12.92;97.63;100683.21;103420;1302;61303;-73
2022/10/14 06:53:18;;;;;;;30.20;19.80;;;;;;;12.97;97.57;100686.04;103022;1300;75634;-75
2022/10/14 06:55:47;;;;;;;29.00;20.10;;;;;;;13.02;97.60;100685.52;103755;1306;72264;-73
2022/10/14 06:58:14;;;;;;;29.70;20.10;;;;;;;13.10;97.56;100690.29;103401;1303;61872;-73
2022/10/14 07:00:46;;;;;;;31.50;22.60;;;;;;;13.16;97.40;100691.13;102948;1296;61311;-75
2022/10/14 07:03:14;;;;;;;30.60;19.80;;;;;;;13.23;97.17;100690.45;103218;1301;61264;-75
2022/10/14 07:05:41;;;;;;;27.30;19.80;;;;;;;13.30;97.08;100688.02;102841;1302;73170;-72
2022/10/14 07:08:07;;;;;;;29.20;21.00;;;;;;;13.37;96.83;100691.50;102762;1299;61285;-72
2022/10/14 07:10:39;;;;;;;33.30;22.10;;;;;;;13.46;96.75;100696.02;103203;1297;70675;-73
2022/10/14 07:13:07;;;;;;;43.20;32.40;;;;;;;13.50;96.00;100695.77;102912;1305;61380;-73
2022/10/14 07:15:34;;;;;;;32.20;22.30;;;;;;;13.53;95.71;100693.85;103398;1302;61258;-74
2022/10/14 07:18:03;;;;;;;32.90;21.80;;;;;;;13.55;95.62;100694.58;102913;1303;74750;-73
2022/10/14 07:20:29;;;;;;;28.50;19.90;;;;;;;13.59;95.45;100694.60;103077;1297;71183;-74
2022/10/14 07:22:56;;;;;;;48.00;33.20;;;;;;;13.65;95.17;100693.33;102608;1295;61539;-74
2022/10/14 07:25:23;;;;;;;31.90;21.80;;;;;;;13.71;94.99;100690.77;103253;1297;61860;-73
2022/10/14 07:27:53;;;;;;;29.40;19.80;;;;;;;13.77;94.56;100695.20;103178;1301;61220;-75
2022/10/14 07:30:22;;;;;;;31.70;22.30;;;;;;;13.81;94.49;100694.99;102517;1304;73076;-74
2022/10/14 07:32:50;;;;;;;32.00;21.60;;;;;;;13.86;94.24;100698.17;103736;1300;69803;-74
2022/10/14 07:35:20;;;;;;;33.40;23.00;;;;;;;13.92;93.82;100698.23;103318;1299;62887;-74
2022/10/14 07:37:49;;;;;;;42.50;28.10;;;;;;;14.02;93.93;100696.98;102996;1299;61804;-75
2022/10/14 07:40:15;;;;;;;31.10;21.30;;;;;;;14.09;93.27;100697.02;102426;1302;61401;-75
2022/10/14 07:42:42;;;;;;;50.80;35.40;;;;;;;14.14;92.74;100697.21;102901;1290;61186;-73
2022/10/14 07:45:09;;;;;;;34.50;23.70;;;;;;;14.20;92.54;100695.63;103278;1300;61914;-74
2022/10/14 07:47:35;;;;;;;46.20;29.90;;;;;;;14.31;92.43;100694.48;102572;1297;72965;-73
2022/10/14 07:50:02;;;;;;;33.10;22.90;;;;;;;14.43;92.23;100691.13;103251;1303;61479;-73
2022/10/14 07:52:29;;;;;;;33.10;21.60;;;;;;;14.58;91.67;100693.33;103305;1293;61289;-73
2022/10/14 07:54:55;;;;;;;33.20;22.30;;;;;;;14.74;91.34;100692.50;103943;1296;61364;-74
2022/10/14 07:57:22;;;;;;;31.80;21.20;;;;;;;14.92;90.78;100695.39;102602;1303;61276;-73
2022/10/14 07:59:51;;;;;;;39.20;25.20;;;;;;;15.02;88.83;100694.11;102301;1296;73688;-72
2022/10/14 08:02:18;;;;;;;44.80;30.10;;;;;;;15.06;88.45;100696.58;103440;1296;62484;-73
2022/10/14 08:04:46;;;;;;;32.30;21.80;;;;;;;15.04;87.93;100695.88;102805;1305;60151;-73
2022/10/14 08:07:15;;;;;;;32.00;21.50;;;;;;;15.03;87.73;100696.77;103113;1291;73749;-74
2022/10/14 08:09:41;;;;;;;32.00;21.40;;;;;;;15.06;87.81;100693.90;102476;1305;71590;-74
2022/10/14 08:12:08;;;;;;;33.70;20.30;;;;;;;15.14;88.03;100697.00;102999;1306;62044;-73
2022/10/14 08:14:34;;;;;;;35.10;23.60;;;;;;;15.12;87.22;100701.68;104288;1295;61288;-73
2022/10/14 08:17:01;;;;;;;32.50;21.30;;;;;;;15.11;87.42;100697.94;103081;1288;61186;-73
2022/10/14 08:19:27;;;;;;;30.10;19.80;;;;;;;15.07;86.86;100697.77;102502;1295;61306;-74
2022/10/14 08:21:53;;;;;;;30.40;20.50;;;;;;;15.07;87.07;100698.23;103767;1296;61392;-73
2022/10/14 08:24:20;;;;;;;30.80;20.40;;;;;;;15.07;86.97;100692.80;103312;1302;61280;-73
2022/10/14 08:26:59;;;;;;;31.90;19.40;;;;;;;15.06;86.79;100692.02;103034;1296;61349;-73
2022/10/14 08:29:26;;;;;;;29.60;19.80;;;;;;;15.07;86.93;100690.98;102883;1305;61904;-74
2022/10/14 08:31:54;;;;;;;28.80;19.30;;;;;;;15.16;87.30;100682.98;104019;1304;73089;-72
2022/10/14 08:34:22;;;;;;;25.60;17.40;;;;;;;15.29;87.29;100682.81;102458;1297;71511;-74
2022/10/14 08:36:50;;;;;;;23.90;15.80;;;;;;;15.37;85.73;100677.05;102719;1299;71540;-73
2022/10/14 08:39:18;;;;;;;25.30;16.20;;;;;;;15.46;85.61;100675.03;103813;1296;61371;-73
2022/10/14 08:41:53;;;;;;;22.80;15.30;;;;;;;15.55;85.89;100674.48;103901;1291;61391;-73
2022/10/14 08:44:24;;;;;;;19.70;14.20;;;;;;;15.63;85.63;100669.66;103063;1305;74704;-73
2022/10/14 08:46:55;;;;;;;19.20;14.40;;;;;;;15.71;85.41;100670.89;102621;1297;71097;-72
2022/10/14 08:49:45;;;;;;;20.20;14.50;;;;;;;15.74;84.05;100670.40;104177;1305;72624;-73
2022/10/14 08:52:24;;;;;;;17.50;13.00;;;;;;;15.75;83.49;100672.41;102769;1304;61919;-73
2022/10/14 08:54:56;;;;;;;15.90;12.20;;;;;;;15.78;83.23;100668.34;102732;1304;61629;-73
2022/10/14 08:57:26;;;;;;;15.00;12.00;;;;;;;15.87;83.39;100665.30;103450;1289;74996;-73
2022/10/14 08:59:54;;;;;;;12.20;9.20;;;;;;;16.01;82.47;100659.91;102810;1299;69950;-72
2022/10/14 09:02:41;;;;;;;12.70;9.70;;;;;;;16.24;81.87;100658.17;102925;1295;71145;-72
2022/10/14 09:05:14;;;;;;;13.00;10.60;;;;;;;16.42;80.53;100650.95;103336;1303;61955;-73
2022/10/14 09:07:42;;;;;;;13.90;11.10;;;;;;;16.42;79.18;100650.09;103845;1295;62386;-73
2022/10/14 09:10:21;;;;;;;12.60;10.10;;;;;;;16.40;79.15;100648.45;103323;1294;74467;-72
2022/10/14 09:12:52;;;;;;;13.10;9.70;;;;;;;16.42;79.16;100649.23;102845;1302;70449;-73
2022/10/14 09:15:26;;;;;;;11.10;9.00;;;;;;;16.53;79.33;100643.73;102752;1301;72702;-73
2022/10/14 09:18:14;;;;;;;11.20;9.20;;;;;;;16.71;78.00;100645.91;103222;1303;62909;-73
2022/10/14 09:20:43;;;;;;;11.20;8.60;;;;;;;16.82;77.22;100644.16;103252;1295;61382;-72
2022/10/14 09:23:19;;;;;;;9.80;8.30;;;;;;;16.90;76.45;100643.36;103808;1303;73632;-72
2022/10/14 09:25:52;;;;;;;9.70;7.20;;;;;;;16.99;76.03;100634.65;103125;1305;69550;-72
2022/10/14 09:28:28;;;;;;;9.80;8.40;;;;;;;16.98;74.76;100640.09;103093;1296;71776;-73
2022/10/14 09:30:55;;;;;;;8.70;7.10;;;;;;;17.02;74.92;100642.58;102514;1298;61418;-73
2022/10/14 09:33:23;;;;;;;12.50;10.30;;;;;;;17.15;74.82;100644.70;102303;1293;61192;-73
2022/10/14 09:35:49;;;;;;;13.60;9.20;;;;;;;17.31;74.00;100645.00;102852;1306;73123;-73
2022/10/14 09:38:17;;;;;;;8.50;6.50;;;;;;;17.48;73.55;100644.54;102995;1298;72390;-72
2022/10/14 09:40:47;;;;;;;9.30;6.70;;;;;;;17.55;72.70;100639.40;103348;1300;72795;-72
2022/10/14 09:43:17;;;;;;;8.10;6.00;;;;;;;17.53;71.63;100638.26;103421;1301;61184;-72
2022/10/14 09:45:58;;;;;;;7.00;5.60;;;;;;;17.57;71.63;100633.82;102706;1300;61412;-72
2022/10/14 09:48:38;;;;;;;7.00;5.50;;;;;;;17.54;70.86;100640.70;102914;1302;72674;-72
2022/10/14 09:51:16;;;;;;;7.60;5.50;;;;;;;17.48;71.14;100639.39;102824;1297;70913;-72
2022/10/14 09:53:47;;;;;;;6.80;5.20;;;;;;;17.47;70.96;100640.89;103096;1305;71137;-72
2022/10/14 09:56:14;;;;;;;5.40;4.40;;;;;;;17.58;71.38;100632.27;103303;1303;61304;-72
2022/10/14 09:58:49;;;;;;;6.00;4.70;;;;;;;17.62;71.52;100634.02;102929;1305;61499;-72
2022/10/14 10:01:19;;;;;;;5.70;3.90;;;;;;;17.57;71.15;100631.34;104023;1296;73146;-73
2022/10/14 10:03:48;;;;;;;5.90;4.60;;;;;;;17.48;70.95;100627.02;103169;1302;69584;-73
2022/10/14 10:06:19;;;;;;;5.50;3.80;;;;;;;17.45;70.79;100625.36;102821;1298;73213;-72
2022/10/14 10:08:51;;;;;;;4.50;3.40;;;;;;;17.45;70.58;100623.95;102974;1298;60487;-72
2022/10/14 10:11:38;;;;;;;5.00;3.60;;;;;;;17.63;71.31;100618.48;102651;1297;60206;-73
2022/10/14 10:14:14;;;;;;;5.20;3.50;;;;;;;17.97;70.37;100621.70;103238;1297;73177;-73
2022/10/14 10:16:44;;;;;;;3.70;2.70;;;;;;;18.11;68.63;100612.73;104229;1296;68689;-72
2022/10/14 10:19:33;;;;;;;4.10;3.00;;;;;;;18.19;68.32;100610.27;103304;1290;72781;-72
2022/10/14 10:22:30;;;;;;;4.20;3.00;;;;;;;18.29;67.49;100607.85;102918;1304;61294;-72
2022/10/14 10:24:59;;;;;;;5.70;2.40;;;;;;;18.33;67.17;100600.65;102454;1300;61359;-73
2022/10/14 10:27:29;;;;;;;3.60;2.30;;;;;;;18.26;66.51;100600.42;103356;1302;74498;-72
2022/10/14 10:29:55;;;;;;;2.90;2.30;;;;;;;18.17;66.58;100592.33;102359;1306;71059;-73
2022/10/14 10:32:45;;;;;;;4.20;3.20;;;;;;;18.10;67.29;100588.88;103584;1298;61854;-72
2022/10/14 10:35:47;;;;;;;3.40;2.20;;;;;;;18.09;67.31;100585.77;103086;1309;61224;-74
2022/10/14 10:38:44;;;;;;;8.70;7.00;;;;;;;18.03;66.86;100585.05;103181;1297;61381;-74
2022/10/14 10:41:25;;;;;;;3.00;2.20;;;;;;;18.14;66.90;100579.90;103073;1296;73398;-73
2022/10/14 10:44:07;;;;;;;2.90;2.00;;;;;;;18.32;66.47;100578.77;102963;1296;70053;-72
2022/10/14 10:46:59;;;;;;;2.60;1.80;;;;;;;18.47;65.39;100572.81;102951;1282;71145;-72
2022/10/14 10:49:37;;;;;;;2.40;2.10;;;;;;;18.62;65.16;100566.83;102782;1280;61282;-72
2022/10/14 10:52:29;;;;;;;5.20;4.20;;;;;;;18.83;65.58;100563.12;103684;1290;228286;-74
2022/10/14 10:55:12;;;;;;;3.10;1.80;;;;;;;18.91;63.75;100562.29;103989;1299;74454;-73
2022/10/14 10:57:51;;;;;;;2.40;1.70;;;;;;;19.08;64.23;100557.36;102541;1305;70027;-73
2022/10/14 11:00:22;;;;;;;2.70;2.10;;;;;;;19.07;63.49;100554.76;102915;1299;71146;-72
2022/10/14 11:03:15;;;;;;;3.30;2.50;;;;;;;18.87;63.02;100552.80;102606;1298;61142;-72
2022/10/14 11:05:45;;;;;;;3.40;2.50;;;;;;;18.70;63.92;100551.03;103275;1295;61284;-72
2022/10/14 11:14:46;;;;;;;4.10;2.70;;;;;;;18.78;63.09;100542.63;103341;1303;72993;-73
2022/10/14 11:17:24;;;;;;;3.60;2.30;;;;;;;18.69;63.56;100543.64;102206;1287;62917;-72
2022/10/14 11:20:10;;;;;;;3.00;1.90;;;;;;;18.62;63.82;100539.55;102654;1299;61625;-71
2022/10/14 11:23:05;;;;;;;3.20;1.90;;;;;;;18.72;64.06;100535.41;102623;1303;73752;-71
2022/10/14 11:26:11;;;;;;;2.50;1.50;;;;;;;18.85;62.72;100537.45;102587;1289;70379;-71
2022/10/14 11:28:50;;;;;;;3.10;1.70;;;;;;;18.92;62.38;100532.74;103569;1310;70142;-72
2022/10/14 11:31:35;;;;;;;3.60;1.60;;;;;;;19.06;62.58;100525.16;103718;1303;61062;-72